createdAt,value
2023-05-02T05:16:06.356Z,79.98
2023-05-02T05:22:59.436Z,79.66
2023-05-02T05:25:28.005Z,79.56
2023-05-02T05:27:59.008Z,78.63
2023-05-02T05:33:47.158Z,77.56
2023-05-02T05:36:15.623Z,77.31
2023-05-02T05:38:43.431Z,76.89
2023-05-02T05:41:11.460Z,77.24
2023-05-02T05:43:38.943Z,77.05
2023-05-02T05:46:06.533Z,76.26
2023-05-02T05:48:34.025Z,75.50
2023-05-02T05:51:07.993Z,73.80
2023-05-02T05:53:35.749Z,75.37
2023-05-02T05:56:13.864Z,74.46
2023-05-02T05:58:42.783Z,75.65
2023-05-02T06:01:10.280Z,75.75
2023-05-02T06:03:37.890Z,73.64
2023-05-02T06:06:06.047Z,73.57
2023-05-02T06:08:33.595Z,72.69
2023-05-02T06:11:01.114Z,72.85
2023-05-02T06:13:28.627Z,72.54
2023-05-02T06:16:00.999Z,72.45
2023-05-02T06:18:29.190Z,72.41
2023-05-02T06:20:57.761Z,73.50
2023-05-02T06:23:25.236Z,72.57
2023-05-02T06:25:52.770Z,73.35
2023-05-02T06:28:20.231Z,72.13
2023-05-02T06:30:47.732Z,72.44
2023-05-02T06:33:15.320Z,72.81
2023-05-02T06:35:42.906Z,73.77
2023-05-02T06:38:10.361Z,73.90
2023-05-02T06:40:38.990Z,72.90
2023-05-02T06:43:06.878Z,73.45
2023-05-02T06:45:34.344Z,72.87
2023-05-02T06:48:01.835Z,71.38
2023-05-02T06:50:30.291Z,72.48
2023-05-02T06:52:57.812Z,71.64
2023-05-02T06:55:25.852Z,70.51
2023-05-02T06:57:55.757Z,70.19
2023-05-02T07:00:23.632Z,69.68
2023-05-02T07:02:51.276Z,69.86
2023-05-02T07:05:18.999Z,70.26
2023-05-02T07:07:46.734Z,70.26
2023-05-02T07:10:14.590Z,69.77
2023-05-02T07:12:42.016Z,69.29
2023-05-02T07:15:10.364Z,69.16
2023-05-02T07:17:37.929Z,68.57
2023-05-02T07:20:07.055Z,68.55
2023-05-02T07:22:34.717Z,67.86
2023-05-02T07:25:03.241Z,67.96
2023-05-02T07:27:30.947Z,66.85
2023-05-02T07:29:58.797Z,67.43
2023-05-02T07:32:26.817Z,67.61
2023-05-02T07:34:55.124Z,67.66
2023-05-02T07:37:23.482Z,66.59
2023-05-02T07:39:51.110Z,66.87
2023-05-02T07:42:18.590Z,67.08
2023-05-02T07:44:46.143Z,65.40
2023-05-02T07:47:13.601Z,64.91
2023-05-02T07:49:41.227Z,65.37
2023-05-02T07:52:08.727Z,65.46
2023-05-02T07:54:36.198Z,66.17
2023-05-02T07:57:05.309Z,66.07
2023-05-02T07:59:33.317Z,66.66
2023-05-02T08:02:01.068Z,65.80
2023-05-02T08:04:28.845Z,63.95
2023-05-02T08:06:57.063Z,63.96
2023-05-02T08:09:24.631Z,63.15
2023-05-02T08:11:52.236Z,63.12
2023-05-02T08:14:19.701Z,61.51
2023-05-02T08:16:47.454Z,61.43
2023-05-02T08:19:15.973Z,61.81
2023-05-02T08:21:43.784Z,62.80
2023-05-02T08:24:11.683Z,61.12
2023-05-02T08:26:39.243Z,60.14
2023-05-02T08:29:06.733Z,60.22
2023-05-02T08:31:34.622Z,61.19
2023-05-02T08:34:02.206Z,58.09
2023-05-02T08:36:29.613Z,60.73
2023-05-02T08:38:57.095Z,58.30
2023-05-02T08:41:29.018Z,59.14
2023-05-02T08:43:58.078Z,59.33
2023-05-02T08:46:26.786Z,58.92
2023-05-02T08:48:59.008Z,58.70
2023-05-02T08:51:29.215Z,58.51
2023-05-02T08:53:57.359Z,58.97
2023-05-02T08:56:25.413Z,58.49
2023-05-02T08:58:53.117Z,57.05
2023-05-02T09:01:28.087Z,58.79
2023-05-02T09:03:57.696Z,57.70
2023-05-02T09:06:27.607Z,57.58
2023-05-02T09:08:55.485Z,56.48
2023-05-02T09:11:23.125Z,56.42
2023-05-02T09:13:52.723Z,55.94
2023-05-02T09:16:27.261Z,57.23
2023-05-02T09:18:58.990Z,56.77
2023-05-02T09:21:40.385Z,55.35
2023-05-02T09:24:22.449Z,56.70
2023-05-02T09:27:06.119Z,55.92
2023-05-02T09:29:39.047Z,55.96
2023-05-02T09:32:07.514Z,53.23
2023-05-02T09:34:37.439Z,55.80
2023-05-02T09:37:05.802Z,54.33
2023-05-02T09:39:33.312Z,55.94
2023-05-02T09:42:01.623Z,54.45
2023-05-02T09:44:39.287Z,55.51
2023-05-02T09:47:09.031Z,55.34
2023-05-02T09:49:46.261Z,54.31
2023-05-02T09:52:23.972Z,54.71
2023-05-02T09:54:52.812Z,54.64
2023-05-02T09:57:20.729Z,54.75
2023-05-02T09:59:59.123Z,54.50
2023-05-02T10:02:30.502Z,52.62
2023-05-02T10:04:59.263Z,51.75
2023-05-02T10:07:27.272Z,50.71
2023-05-02T10:09:58.529Z,50.26
2023-05-02T10:12:30.105Z,50.40
2023-05-02T10:15:05.946Z,51.02
2023-05-02T10:17:43.622Z,51.61
2023-05-02T10:20:16.595Z,49.69
2023-05-02T10:22:45.436Z,51.72
2023-05-02T10:25:13.700Z,48.36
2023-05-02T10:27:42.048Z,50.02
2023-05-02T10:30:10.633Z,49.23
2023-05-02T10:32:39.023Z,50.12
2023-05-02T10:35:08.398Z,49.44
2023-05-02T10:37:39.787Z,49.45
2023-05-02T10:40:13.219Z,50.11
2023-05-02T10:42:51.223Z,48.77
2023-05-02T10:45:38.795Z,46.76
2023-05-02T10:48:20.915Z,45.46
2023-05-02T10:51:01.395Z,45.43
2023-05-02T10:53:39.737Z,45.43
2023-05-02T10:56:22.194Z,44.44
2023-05-02T10:58:53.683Z,45.48
2023-05-02T11:01:29.825Z,45.39
2023-05-02T11:04:11.357Z,44.78
2023-05-02T11:06:57.464Z,42.03
2023-05-02T11:09:24.764Z,44.64
2023-05-02T11:11:54.350Z,45.22
2023-05-02T11:14:43.454Z,43.51
2023-05-02T11:17:11.205Z,42.40
2023-05-02T11:19:38.510Z,42.84
2023-05-02T11:22:20.941Z,43.35
2023-05-02T11:24:50.724Z,42.30
2023-05-02T11:27:30.530Z,41.97
2023-05-02T11:30:09.603Z,40.98
2023-05-02T11:32:46.864Z,41.23
2023-05-02T11:35:32.975Z,41.72
2023-05-02T11:38:12.599Z,41.44
2023-05-02T11:40:40.433Z,40.98
2023-05-02T11:43:18.635Z,41.54
2023-05-02T11:45:46.433Z,38.99
2023-05-02T11:48:18.926Z,39.07
2023-05-02T11:51:07.474Z,39.36
2023-05-02T11:53:40.634Z,39.56
2023-05-02T11:56:09.167Z,37.76
2023-05-02T11:58:36.632Z,37.59
2023-05-02T12:01:17.653Z,37.81
2023-05-02T12:03:45.828Z,37.11
2023-05-02T12:06:21.061Z,38.31
2023-05-02T12:08:49.490Z,37.10
2023-05-02T12:11:17.651Z,37.71
2023-05-02T12:13:50.085Z,36.82
2023-05-02T12:16:19.479Z,36.22
2023-05-02T12:18:48.529Z,37.38
2023-05-02T12:21:17.906Z,37.55
2023-05-02T12:23:45.997Z,37.37
2023-05-02T12:26:29.606Z,37.79
2023-05-02T12:28:58.451Z,37.49
2023-05-02T12:31:31.577Z,36.53
2023-05-02T12:34:01.179Z,36.40
2023-05-02T12:36:29.621Z,34.38
2023-05-02T12:39:00.306Z,33.79
2023-05-02T12:41:43.701Z,32.09
2023-05-02T12:44:11.206Z,31.85
2023-05-02T12:46:57.333Z,32.57
2023-05-02T12:49:24.790Z,33.31
2023-05-02T12:51:58.804Z,30.89
2023-05-02T12:54:26.908Z,31.47
2023-05-02T12:56:54.495Z,32.40
2023-05-02T12:59:32.866Z,29.89
2023-05-02T13:02:01.031Z,31.02
2023-05-02T13:04:41.593Z,31.03
2023-05-02T13:07:09.218Z,29.88
2023-05-02T13:09:37.197Z,31.51
2023-05-02T13:12:06.265Z,31.30
2023-05-02T13:14:33.959Z,30.21
2023-05-02T13:17:01.841Z,30.16
2023-05-02T13:19:31.528Z,30.17
2023-05-02T13:21:59.618Z,29.74
2023-05-02T13:24:27.687Z,26.84
2023-05-02T13:26:55.910Z,28.55
2023-05-02T13:29:23.435Z,28.26
2023-05-02T13:31:50.934Z,27.42
2023-05-02T13:34:18.456Z,28.23
2023-05-02T13:36:46.538Z,27.37
2023-05-02T13:39:14.262Z,27.92
2023-05-02T13:41:41.888Z,28.19
2023-05-02T13:44:09.577Z,27.21
2023-05-02T13:46:38.074Z,25.91
2023-05-02T13:49:06.401Z,27.06
2023-05-02T13:51:33.947Z,26.91
2023-05-02T13:54:01.823Z,26.79
2023-05-02T13:56:29.522Z,26.89
2023-05-02T13:58:57.039Z,25.34
2023-05-02T14:01:26.789Z,26.37
2023-05-02T14:03:54.900Z,25.91
2023-05-02T14:06:22.690Z,26.30
2023-05-02T14:08:51.534Z,25.56
2023-05-02T14:11:19.033Z,24.53
2023-05-02T14:13:46.791Z,23.75
2023-05-02T14:16:14.291Z,24.14
2023-05-02T14:18:41.950Z,23.85
2023-05-02T14:21:09.341Z,23.53
2023-05-02T14:23:36.898Z,23.82
2023-05-02T14:26:04.531Z,23.97
2023-05-02T14:28:32.377Z,23.70
2023-05-02T14:30:59.900Z,23.16
2023-05-02T14:33:28.641Z,23.10
2023-05-02T14:35:56.234Z,24.97
2023-05-02T14:38:23.709Z,24.19
2023-05-02T14:40:51.479Z,23.87
2023-05-02T14:43:19.171Z,25.36
2023-05-02T14:45:46.638Z,22.76
2023-05-02T14:48:14.346Z,22.89
2023-05-02T14:50:41.883Z,23.72
2023-05-02T14:53:09.472Z,23.68
2023-05-02T14:55:39.398Z,23.59
2023-05-02T14:58:12.047Z,23.75
2023-05-02T15:00:39.618Z,24.11
2023-05-02T15:03:09.854Z,23.04
2023-05-02T15:05:37.640Z,25.01
2023-05-02T15:08:05.953Z,23.14
2023-05-02T15:10:39.352Z,24.02
2023-05-02T15:13:07.727Z,23.57
2023-05-02T15:15:35.595Z,22.85
2023-05-02T15:18:03.564Z,23.34
2023-05-02T15:20:31.105Z,21.76
2023-05-02T15:23:03.310Z,22.41
2023-05-02T15:25:31.386Z,22.32
2023-05-02T15:27:58.998Z,22.54
2023-05-02T15:30:26.459Z,22.44
2023-05-02T15:32:54.133Z,22.95
2023-05-02T15:35:21.661Z,22.90
2023-05-02T15:37:49.188Z,23.94
2023-05-02T15:40:16.943Z,23.74
2023-05-02T15:42:44.377Z,24.13
2023-05-02T15:45:14.930Z,24.35
2023-05-02T15:47:42.412Z,24.78
2023-05-02T15:50:11.177Z,24.94
2023-05-02T15:52:39.002Z,24.62
2023-05-02T15:55:06.956Z,24.19
2023-05-02T15:57:34.616Z,24.66
2023-05-02T16:00:02.589Z,25.31
2023-05-02T16:02:31.203Z,25.72
2023-05-02T16:04:58.690Z,25.55
2023-05-02T16:07:26.137Z,26.46
2023-05-02T16:09:53.575Z,26.96
2023-05-02T16:12:21.086Z,27.19
2023-05-02T16:14:48.655Z,28.31
2023-05-02T16:17:16.259Z,28.09
2023-05-02T16:19:43.934Z,26.48
2023-05-02T16:22:11.529Z,27.99
2023-05-02T16:24:39.055Z,29.03
2023-05-02T16:27:06.593Z,29.39
2023-05-02T16:29:34.044Z,29.98
2023-05-02T16:32:01.929Z,29.98
2023-05-02T16:34:33.541Z,31.61
2023-05-02T16:37:02.560Z,31.39
2023-05-02T16:39:31.266Z,32.14
2023-05-02T16:41:58.709Z,32.18
2023-05-02T16:44:26.254Z,32.89
2023-05-02T16:46:53.940Z,31.54
2023-05-02T16:49:21.501Z,32.78
2023-05-02T16:51:53.844Z,33.37
2023-05-02T16:54:21.516Z,33.18
2023-05-02T16:56:49.027Z,33.41
2023-05-02T16:59:16.479Z,34.60
2023-05-02T17:01:44.011Z,34.76
2023-05-02T17:04:11.629Z,34.99
2023-05-02T17:06:39.467Z,34.56
2023-05-02T17:09:07.498Z,35.85
2023-05-02T17:11:35.010Z,36.25
2023-05-02T17:14:02.665Z,37.79
2023-05-02T17:16:30.180Z,37.68
2023-05-02T17:18:57.782Z,38.71
2023-05-02T17:21:25.229Z,37.98
2023-05-02T17:23:52.658Z,39.27
2023-05-02T17:26:20.179Z,36.81
2023-05-02T17:28:50.325Z,37.37
2023-05-02T17:31:18.386Z,37.42
2023-05-02T17:33:46.533Z,38.92
2023-05-02T17:36:17.876Z,39.70
2023-05-02T17:38:46.119Z,40.03
2023-05-02T17:41:15.052Z,40.56
2023-05-02T17:43:43.185Z,40.63
2023-05-02T17:46:11.134Z,40.68
2023-05-02T17:48:45.771Z,41.50
2023-05-02T17:51:13.463Z,40.67
2023-05-02T17:53:41.313Z,41.29
2023-05-02T17:56:09.003Z,41.04
2023-05-02T17:58:37.492Z,40.98
2023-05-02T18:01:14.019Z,40.59
2023-05-02T18:03:41.974Z,40.73
2023-05-02T18:06:15.328Z,41.72
2023-05-02T18:08:43.907Z,41.47
2023-05-02T18:11:21.153Z,41.88
2023-05-02T18:13:49.910Z,44.25
2023-05-02T18:16:17.510Z,46.10
2023-05-02T18:18:45.527Z,47.54
2023-05-02T18:21:22.969Z,48.23
2023-05-02T18:23:52.738Z,45.38
2023-05-02T18:26:20.343Z,45.29
2023-05-02T18:28:53.216Z,46.10
2023-05-02T18:31:21.258Z,46.83
2023-05-02T18:33:48.855Z,46.27
2023-05-02T18:36:20.835Z,46.65
2023-05-02T18:38:49.110Z,44.67
2023-05-02T18:41:17.628Z,43.31
2023-05-02T18:43:45.041Z,42.52
2023-05-02T18:46:12.552Z,44.00
2023-05-02T18:48:40.281Z,42.67
2023-05-02T18:51:07.863Z,41.65
2023-05-02T18:53:35.262Z,41.71
2023-05-02T18:56:02.947Z,42.28
2023-05-02T18:58:30.806Z,42.18
2023-05-02T19:00:58.305Z,43.56
2023-05-02T19:03:26.911Z,41.62
2023-05-02T19:05:54.470Z,42.15
2023-05-02T19:08:22.789Z,43.33
2023-05-02T19:10:50.255Z,41.76
2023-05-02T19:13:17.946Z,42.37
2023-05-02T19:15:45.480Z,42.67
2023-05-02T19:18:13.586Z,42.89
2023-05-02T19:20:41.120Z,44.58
2023-05-02T19:23:19.691Z,45.39
2023-05-02T19:25:48.198Z,53.17
2023-05-02T19:28:18.596Z,56.81
2023-05-02T19:30:46.082Z,56.00
2023-05-02T19:33:13.676Z,56.77
2023-05-02T19:35:41.253Z,55.22
2023-05-02T19:38:09.340Z,55.46
2023-05-02T19:40:36.905Z,54.81
2023-05-02T19:43:04.303Z,55.17
2023-05-02T19:45:31.878Z,54.93
2023-05-02T19:47:59.438Z,55.97
2023-05-02T19:50:26.994Z,55.61
2023-05-02T19:52:54.476Z,55.47
2023-05-02T19:55:22.098Z,54.66
2023-05-02T19:57:49.603Z,55.20
2023-05-02T20:00:17.485Z,54.51
2023-05-02T20:02:45.171Z,54.91
2023-05-02T20:05:12.878Z,54.40
2023-05-02T20:07:40.387Z,54.89
2023-05-02T20:10:09.360Z,55.15
2023-05-02T20:12:36.811Z,56.35
2023-05-02T20:15:05.207Z,57.31
2023-05-02T20:17:32.815Z,57.26
2023-05-02T20:20:02.460Z,57.65
2023-05-02T20:22:30.125Z,58.67
2023-05-02T20:24:57.570Z,57.58
2023-05-02T20:27:25.040Z,57.92
2023-05-02T20:29:52.488Z,57.71
2023-05-02T20:32:19.951Z,58.41
2023-05-02T20:34:47.456Z,58.25
2023-05-02T20:37:14.959Z,58.40
2023-05-02T20:39:42.429Z,58.26
2023-05-02T20:42:10.143Z,58.79
2023-05-02T20:44:37.950Z,58.90
2023-05-02T20:47:05.481Z,58.57
2023-05-02T20:49:33.799Z,58.76
2023-05-02T20:52:05.910Z,59.21
2023-05-02T20:54:33.381Z,60.48
2023-05-02T20:57:00.909Z,58.80
2023-05-02T20:59:28.433Z,59.59
2023-05-02T21:01:56.051Z,59.52
2023-05-02T21:04:23.680Z,59.73
2023-05-02T21:06:51.309Z,60.40
2023-05-02T21:09:19.020Z,60.78
2023-05-02T21:11:46.954Z,59.95
2023-05-02T21:14:14.540Z,61.30
2023-05-02T21:16:42.146Z,61.97
2023-05-02T21:19:09.740Z,60.91
2023-05-02T21:21:37.218Z,61.67
2023-05-02T21:24:05.372Z,61.34
2023-05-02T21:26:32.907Z,60.38
2023-05-02T21:29:00.464Z,61.14
2023-05-02T21:31:27.935Z,61.10
2023-05-02T21:33:55.376Z,60.93
2023-05-02T21:36:22.844Z,61.12
2023-05-02T21:38:50.774Z,60.53
2023-05-02T21:41:18.211Z,61.21
2023-05-02T21:43:46.074Z,60.68
2023-05-02T21:46:13.909Z,60.93
2023-05-02T21:48:41.620Z,61.13
2023-05-02T21:51:11.976Z,61.14
2023-05-02T21:53:40.003Z,61.21
2023-05-02T21:56:08.806Z,61.72
2023-05-02T21:58:36.446Z,61.33
2023-05-02T22:01:04.077Z,61.83
2023-05-02T22:03:33.879Z,62.57
2023-05-02T22:06:06.414Z,62.27
2023-05-02T22:08:34.583Z,62.54
2023-05-02T22:11:09.804Z,62.47
2023-05-02T22:13:37.553Z,62.92
2023-05-02T22:16:05.791Z,62.53
2023-05-02T22:18:33.322Z,63.02
2023-05-02T22:21:01.683Z,63.57
2023-05-02T22:23:31.123Z,63.18
2023-05-02T22:25:58.943Z,63.25
2023-05-02T22:28:27.045Z,63.46
2023-05-02T22:30:54.935Z,63.48
2023-05-02T22:33:23.622Z,64.47
2023-05-02T22:35:51.062Z,65.56
2023-05-02T22:38:20.738Z,65.72
2023-05-02T22:40:48.255Z,65.85
2023-05-02T22:43:16.226Z,65.48
2023-05-02T22:45:43.906Z,66.70
2023-05-02T22:48:12.242Z,67.40
2023-05-02T22:50:40.212Z,67.41
2023-05-02T22:53:09.563Z,67.21
2023-05-02T22:55:39.141Z,66.43
2023-05-02T22:58:06.562Z,65.85
2023-05-02T23:00:34.221Z,65.99
2023-05-02T23:03:02.539Z,66.20
2023-05-02T23:05:30.266Z,66.11
2023-05-02T23:07:58.164Z,66.04
2023-05-02T23:10:25.690Z,65.81
2023-05-02T23:12:53.136Z,64.98
2023-05-02T23:15:20.947Z,65.29
2023-05-02T23:17:48.814Z,65.59
2023-05-02T23:20:19.653Z,65.69
2023-05-02T23:22:47.224Z,66.45
2023-05-02T23:25:15.866Z,66.87
2023-05-02T23:27:43.404Z,67.55
2023-05-02T23:30:12.226Z,66.82
2023-05-02T23:32:39.975Z,67.27
2023-05-02T23:35:11.149Z,66.78
2023-05-02T23:37:41.102Z,66.88
